Time;durP1;ratioP1;P1;durP2;ratioP2;P2;SDS_P1;SDS_P2;PMS_P1;PMS_P2;Temp;Humidity;BMP_temperature;BMP_pressure;BME280_temperature;BME280_humidity;BME280_pressure;Samples;Min_cycle;Max_cycle;Signal;HPM_P1;HPM_P2
2023/01/13 00:00:20;;;;;;;;;;;0.60;99.90;;;;;;5073345;28;19912;-76
2023/01/13 00:02:45;;;;;;;;;;;0.60;99.90;;;;;;5073291;28;19923;-76
2023/01/13 00:05:11;;;;;;;;;;;0.60;99.90;;;;;;5073663;28;19920;-76
2023/01/13 00:07:38;;;;;;;;;;;0.60;99.90;;;;;;5073602;28;19916;-76
2023/01/13 00:10:08;;;;;;;;;;;0.60;99.90;;;;;;5072955;28;19966;-76
2023/01/13 00:12:33;;;;;;;;;;;0.60;99.90;;;;;;5075360;28;19932;-76
2023/01/13 00:14:59;;;;;;;;;;;0.60;99.90;;;;;;5077600;28;20361;-76
2023/01/13 00:17:24;;;;;;;;;;;0.70;99.90;;;;;;5077267;28;20011;-76
2023/01/13 00:19:50;;;;;;;;;;;0.70;99.90;;;;;;5077194;28;19920;-76
2023/01/13 00:22:16;;;;;;;;;;;0.70;99.90;;;;;;5076754;28;19912;-75
2023/01/13 00:24:41;;;;;;;;;;;0.70;99.90;;;;;;5076715;28;19979;-75
2023/01/13 00:27:07;;;;;;;;;;;0.70;99.90;;;;;;5076799;28;20368;-76
2023/01/13 00:29:32;;;;;;;;;;;0.70;99.90;;;;;;5076719;28;19951;-76
2023/01/13 00:31:58;;;;;;;;;;;0.70;99.90;;;;;;5076953;28;19920;-76
2023/01/13 00:34:23;;;;;;;;;;;0.60;99.90;;;;;;5076422;28;19966;-76
2023/01/13 00:36:49;;;;;;;;;;;0.60;99.90;;;;;;5076607;28;19912;-76
2023/01/13 00:39:14;;;;;;;;;;;0.50;99.90;;;;;;5076236;28;19936;-75
2023/01/13 00:44:24;;;;;;;;;;;0.50;99.90;;;;;;5076425;28;19924;-76
2023/01/13 00:46:49;;;;;;;;;;;0.60;99.90;;;;;;5076684;28;19909;-76
2023/01/13 00:49:15;;;;;;;;;;;0.60;99.90;;;;;;5076288;28;19912;-76
2023/01/13 00:51:41;;;;;;;;;;;0.60;99.90;;;;;;5080282;28;19908;-76
2023/01/13 00:54:06;;;;;;;;;;;0.60;99.90;;;;;;5096329;28;19919;-75
2023/01/13 00:56:32;;;;;;;;;;;0.60;99.90;;;;;;5096735;28;19913;-75
2023/01/13 00:58:58;;;;;;;;;;;0.70;99.90;;;;;;5096380;28;19908;-76
2023/01/13 01:01:24;;;;;;;;;;;0.60;99.90;;;;;;5096397;28;19916;-76
2023/01/13 01:03:51;;;;;;;;;;;0.70;99.90;;;;;;5096318;28;20249;-75
2023/01/13 01:06:18;;;;;;;;;;;0.70;99.90;;;;;;5096304;28;19969;-76
2023/01/13 01:08:44;;;;;;;;;;;0.70;99.90;;;;;;5095973;28;20562;-75
2023/01/13 01:11:11;;;;;;;;;;;0.70;99.90;;;;;;5096206;28;19918;-75
2023/01/13 01:13:36;;;;;;;;;;;0.70;99.90;;;;;;5096177;28;19915;-76
2023/01/13 01:16:05;;;;;;;;;;;0.70;99.90;;;;;;5096091;28;19999;-75
2023/01/13 01:18:32;;;;;;;;;;;0.70;99.90;;;;;;5095912;28;19928;-75
2023/01/13 01:20:59;;;;;;;;;;;0.70;99.90;;;;;;5096357;28;19943;-76
2023/01/13 01:23:24;;;;;;;;;;;0.60;99.90;;;;;;5095374;28;19916;-75
2023/01/13 01:25:50;;;;;;;;;;;0.60;99.90;;;;;;5095969;28;19916;-76
2023/01/13 01:28:18;;;;;;;;;;;0.60;99.90;;;;;;5095837;28;19912;-76
2023/01/13 01:30:43;;;;;;;;;;;0.60;99.90;;;;;;5096168;28;19966;-75
2023/01/13 01:33:09;;;;;;;;;;;0.60;99.90;;;;;;5095914;28;19912;-75
2023/01/13 01:35:37;;;;;;;;;;;0.60;99.90;;;;;;5094500;28;19912;-76
2023/01/13 01:38:03;;;;;;;;;;;0.60;99.90;;;;;;5094443;28;19995;-75
2023/01/13 01:40:28;;;;;;;;;;;0.50;99.90;;;;;;5095330;28;19960;-75
2023/01/13 01:45:38;;;;;;;;;;;0.60;99.90;;;;;;5096179;28;19958;-76
2023/01/13 01:48:04;;;;;;;;;;;0.60;99.90;;;;;;5095775;28;19916;-75
2023/01/13 01:50:30;;;;;;;;;;;0.60;99.90;;;;;;5095393;28;19981;-75
2023/01/13 01:53:00;;;;;;;;;;;0.60;99.90;;;;;;5095323;28;20280;-75
2023/01/13 01:55:28;;;;;;;;;;;0.60;99.90;;;;;;5093879;28;20019;-75
2023/01/13 01:57:55;;;;;;;;;;;0.60;99.90;;;;;;5095291;28;19995;-76
2023/01/13 02:00:21;;;;;;;;;;;0.60;99.90;;;;;;5095198;28;19908;-75
2023/01/13 02:02:48;;;;;;;;;;;0.60;99.90;;;;;;5095112;28;19912;-75
2023/01/13 02:05:14;;;;;;;;;;;0.50;99.90;;;;;;5094170;28;19965;-75
2023/01/13 02:07:41;;;;;;;;;;;0.50;99.90;;;;;;5095065;28;19912;-76
2023/01/13 02:10:08;;;;;;;;;;;0.50;99.90;;;;;;5093817;28;20257;-75
2023/01/13 02:12:34;;;;;;;;;;;0.50;99.90;;;;;;5094954;28;19908;-76
2023/01/13 02:15:03;;;;;;;;;;;0.40;99.90;;;;;;5094982;28;20383;-76
2023/01/13 02:17:31;;;;;;;;;;;0.40;99.90;;;;;;5094728;28;19923;-76
2023/01/13 02:20:09;;;;;;;;;;;0.40;99.90;;;;;;5094938;28;19916;-75
2023/01/13 02:22:34;;;;;;;;;;;0.30;99.90;;;;;;5094739;28;19912;-75
2023/01/13 02:25:12;;;;;;;;;;;0.30;99.90;;;;;;5094666;28;20261;-75
2023/01/13 02:27:46;;;;;;;;;;;0.30;99.90;;;;;;5094787;28;19947;-75
2023/01/13 02:33:27;;;;;;;;;;;0.30;99.90;;;;;;5095140;28;19915;-75
2023/01/13 02:36:12;;;;;;;;;;;0.30;99.90;;;;;;5074206;28;19998;-75
2023/01/13 02:38:53;;;;;;;;;;;0.30;99.90;;;;;;5072931;28;20353;-75
2023/01/13 02:44:13;;;;;;;;;;;0.40;99.90;;;;;;5074521;28;19919;-75
2023/01/13 02:46:42;;;;;;;;;;;0.40;99.90;;;;;;5074176;28;19991;-76
2023/01/13 02:49:10;;;;;;;;;;;0.50;99.90;;;;;;5074085;28;19908;-75
2023/01/13 02:51:37;;;;;;;;;;;0.50;99.90;;;;;;5074057;28;19936;-76
2023/01/13 02:54:07;;;;;;;;;;;0.50;99.90;;;;;;5074093;28;20373;-75
2023/01/13 02:56:34;;;;;;;;;;;0.50;99.90;;;;;;5073770;28;19958;-75
2023/01/13 02:59:00;;;;;;;;;;;0.50;99.90;;;;;;5074114;28;19908;-75
2023/01/13 03:01:26;;;;;;;;;;;0.50;99.90;;;;;;5074275;28;19915;-75
2023/01/13 03:03:51;;;;;;;;;;;0.50;99.90;;;;;;5073883;28;20292;-75
2023/01/13 03:06:36;;;;;;;;;;;0.50;99.90;;;;;;5073913;28;20266;-75
2023/01/13 03:09:05;;;;;;;;;;;0.50;99.90;;;;;;5073854;28;20371;-75
2023/01/13 03:11:39;;;;;;;;;;;0.50;99.90;;;;;;5073604;28;19913;-75
2023/01/13 03:14:23;;;;;;;;;;;0.50;99.90;;;;;;5073860;28;19915;-76
2023/01/13 03:17:04;;;;;;;;;;;0.40;99.90;;;;;;5073728;28;19919;-75
2023/01/13 03:19:42;;;;;;;;;;;0.40;99.90;;;;;;5073768;28;19912;-75
2023/01/13 03:22:26;;;;;;;;;;;0.40;99.90;;;;;;5072791;28;19908;-75
2023/01/13 03:24:55;;;;;;;;;;;0.40;99.90;;;;;;5073530;28;20407;-75
2023/01/13 03:27:29;;;;;;;;;;;0.40;99.90;;;;;;5073716;28;19909;-75
2023/01/13 03:29:57;;;;;;;;;;;0.40;99.90;;;;;;5073642;28;19939;-75
2023/01/13 03:32:26;;;;;;;;;;;0.30;99.90;;;;;;5073915;28;19931;-75
2023/01/13 03:34:54;;;;;;;;;;;0.20;99.90;;;;;;5073633;28;19909;-75
2023/01/13 03:37:22;;;;;;;;;;;0.20;99.90;;;;;;5073944;28;19931;-75
2023/01/13 03:39:54;;;;;;;;;;;0.20;99.90;;;;;;5073225;28;19908;-75
2023/01/13 03:42:22;;;;;;;;;;;0.20;99.90;;;;;;5073476;28;19991;-76
2023/01/13 03:44:56;;;;;;;;;;;0.20;99.90;;;;;;5073535;28;19999;-75
2023/01/13 03:47:27;;;;;;;;;;;0.20;99.90;;;;;;5076806;28;19995;-75
2023/01/13 03:50:00;;;;;;;;;;;0.20;99.90;;;;;;5077776;28;19908;-75
2023/01/13 03:52:35;;;;;;;;;;;0.20;99.90;;;;;;5077461;28;20361;-75
2023/01/13 03:55:12;;;;;;;;;;;0.10;99.90;;;;;;5077233;28;19908;-75
2023/01/13 03:57:40;;;;;;;;;;;0.20;99.90;;;;;;5076841;28;19908;-75
2023/01/13 04:00:08;;;;;;;;;;;0.10;99.90;;;;;;5077095;28;19908;-75
2023/01/13 04:02:39;;;;;;;;;;;0.10;99.90;;;;;;5077467;28;19908;-76
2023/01/13 04:05:07;;;;;;;;;;;0.20;99.90;;;;;;5077240;28;19919;-76
2023/01/13 04:07:39;;;;;;;;;;;0.20;99.90;;;;;;5077423;28;19916;-75
2023/01/13 04:10:07;;;;;;;;;;;0.20;99.90;;;;;;5076816;28;19913;-75
2023/01/13 04:13:01;;;;;;;;;;;0.20;99.90;;;;;;5077066;28;19908;-75
2023/01/13 04:15:28;;;;;;;;;;;0.20;99.90;;;;;;5077305;28;19924;-75
2023/01/13 04:18:00;;;;;;;;;;;0.20;99.90;;;;;;5077190;28;20085;-75
2023/01/13 04:20:25;;;;;;;;;;;0.20;99.90;;;;;;5077040;28;19916;-75
2023/01/13 04:22:51;;;;;;;;;;;0.20;99.90;;;;;;5077121;28;19916;-75
2023/01/13 04:25:16;;;;;;;;;;;0.20;99.90;;;;;;5076559;28;19913;-75
2023/01/13 04:27:42;;;;;;;;;;;0.20;99.90;;;;;;5078061;28;19913;-75
2023/01/13 04:30:08;;;;;;;;;;;0.20;99.90;;;;;;5096206;28;19912;-75
2023/01/13 04:32:33;;;;;;;;;;;0.20;99.90;;;;;;5096486;28;19942;-75
2023/01/13 04:34:59;;;;;;;;;;;0.30;99.90;;;;;;5091337;28;19952;-75
2023/01/13 04:37:24;;;;;;;;;;;0.30;99.90;;;;;;5089903;28;20285;-75
2023/01/13 04:39:50;;;;;;;;;;;0.20;99.90;;;;;;5076515;28;19916;-75
2023/01/13 04:42:16;;;;;;;;;;;0.30;99.90;;;;;;5087597;28;19912;-75
2023/01/13 04:44:41;;;;;;;;;;;0.30;99.90;;;;;;5096076;28;19916;-75
2023/01/13 04:47:07;;;;;;;;;;;0.30;99.90;;;;;;5094689;28;19912;-75
2023/01/13 04:49:32;;;;;;;;;;;0.20;99.90;;;;;;5094794;28;19908;-75
2023/01/13 04:51:58;;;;;;;;;;;0.20;99.90;;;;;;5096237;28;19919;-75
2023/01/13 04:54:24;;;;;;;;;;;0.20;99.90;;;;;;5086256;28;19920;-75
2023/01/13 04:56:49;;;;;;;;;;;0.20;99.90;;;;;;5085686;28;19916;-75
2023/01/13 04:59:15;;;;;;;;;;;0.10;99.90;;;;;;5092639;28;19923;-75
2023/01/13 05:01:40;;;;;;;;;;;0.10;99.90;;;;;;5076145;28;19959;-75
2023/01/13 05:04:06;;;;;;;;;;;0.10;99.90;;;;;;5076308;28;19920;-75
2023/01/13 05:06:32;;;;;;;;;;;0.10;99.90;;;;;;5076119;28;20011;-75
2023/01/13 05:08:58;;;;;;;;;;;0.10;99.90;;;;;;5076227;28;20455;-75
2023/01/13 05:16:59;;;;;;;;;;;0.20;99.90;;;;;;5077390;28;19918;-75
2023/01/13 05:19:28;;;;;;;;;;;0.20;99.90;;;;;;5076745;28;19924;-75
2023/01/13 05:27:22;;;;;;;;;;;0.20;99.90;;;;;;5096626;28;20000;-76
2023/01/13 05:29:47;;;;;;;;;;;0.20;99.90;;;;;;5095824;28;19915;-76
2023/01/13 05:32:13;;;;;;;;;;;0.10;99.90;;;;;;5095805;28;19958;-76
2023/01/13 05:34:38;;;;;;;;;;;0.10;99.90;;;;;;5095783;28;19921;-76
2023/01/13 05:37:06;;;;;;;;;;;0.10;99.90;;;;;;5096049;28;19918;-76
2023/01/13 05:43:18;;;;;;;;;;;0.10;99.90;;;;;;5095598;28;19934;-76
2023/01/13 05:45:02;;;;;;;;;;;0.10;99.90;;;;;;5095753;28;19923;-77
2023/01/13 05:47:27;;;;;;;;;;;0.10;99.90;;;;;;5094075;28;19995;-76
2023/01/13 05:49:53;;;;;;;;;;;0.10;99.90;;;;;;5095341;28;19943;-77
2023/01/13 05:52:18;;;;;;;;;;;0.10;99.90;;;;;;5095594;28;19912;-76
2023/01/13 05:54:44;;;;;;;;;;;0.10;99.90;;;;;;5096006;28;19916;-77
2023/01/13 05:57:10;;;;;;;;;;;0.10;99.90;;;;;;5095648;28;19961;-77
2023/01/13 05:59:35;;;;;;;;;;;0.10;99.90;;;;;;5095333;28;19958;-77
2023/01/13 06:02:01;;;;;;;;;;;0.10;99.90;;;;;;5095145;28;19923;-77
2023/01/13 06:04:26;;;;;;;;;;;0.20;99.90;;;;;;5095433;28;19923;-77
2023/01/13 06:06:52;;;;;;;;;;;0.20;99.90;;;;;;5095450;28;19983;-77
2023/01/13 06:09:19;;;;;;;;;;;0.20;99.90;;;;;;5094057;28;20342;-77
2023/01/13 06:11:45;;;;;;;;;;;0.20;99.90;;;;;;5095052;28;20026;-77
2023/01/13 06:14:10;;;;;;;;;;;0.20;99.90;;;;;;5095041;28;20386;-77
2023/01/13 06:16:36;;;;;;;;;;;0.20;99.90;;;;;;5094608;28;19940;-77
2023/01/13 06:19:02;;;;;;;;;;;0.20;99.90;;;;;;5095010;28;19916;-77
2023/01/13 06:21:27;;;;;;;;;;;0.20;99.90;;;;;;5094869;28;19912;-77
2023/01/13 06:23:53;;;;;;;;;;;0.20;99.90;;;;;;5094747;28;20003;-77
2023/01/13 06:26:19;;;;;;;;;;;0.20;99.90;;;;;;5094798;28;20369;-76
2023/01/13 06:28:45;;;;;;;;;;;0.20;99.90;;;;;;5093711;28;20367;-77
2023/01/13 06:31:10;;;;;;;;;;;0.20;99.90;;;;;;5094471;28;19916;-76
2023/01/13 06:33:37;;;;;;;;;;;0.20;99.90;;;;;;5094631;28;19947;-77
2023/01/13 06:36:06;;;;;;;;;;;0.20;99.90;;;;;;5094923;28;20003;-77
2023/01/13 06:38:33;;;;;;;;;;;0.20;99.90;;;;;;5094716;28;20293;-77
2023/01/13 06:40:58;;;;;;;;;;;0.20;99.90;;;;;;5094523;28;20391;-77
2023/01/13 06:43:24;;;;;;;;;;;0.20;99.90;;;;;;5094421;28;19920;-77
2023/01/13 06:45:51;;;;;;;;;;;0.20;99.90;;;;;;5094685;28;19985;-77
2023/01/13 06:48:17;;;;;;;;;;;0.20;99.90;;;;;;5094102;28;20287;-77
2023/01/13 06:50:43;;;;;;;;;;;0.20;99.90;;;;;;5094687;28;19908;-77
2023/01/13 06:53:09;;;;;;;;;;;0.20;99.90;;;;;;5094300;28;20434;-77
2023/01/13 06:55:35;;;;;;;;;;;0.20;99.90;;;;;;5094585;28;19912;-77
2023/01/13 06:58:00;;;;;;;;;;;0.20;99.90;;;;;;5094565;28;19916;-77
2023/01/13 07:00:26;;;;;;;;;;;0.20;99.90;;;;;;5094181;28;20402;-77
2023/01/13 07:02:52;;;;;;;;;;;0.20;99.90;;;;;;5093956;28;20395;-77
2023/01/13 07:05:17;;;;;;;;;;;0.20;99.90;;;;;;5093160;28;20410;-77
2023/01/13 07:07:43;;;;;;;;;;;0.20;99.90;;;;;;5092881;28;19966;-77
2023/01/13 07:10:11;;;;;;;;;;;0.20;99.90;;;;;;5094081;28;19908;-77
2023/01/13 07:15:17;;;;;;;;;;;0.30;99.90;;;;;;5094324;28;19917;-77
2023/01/13 07:15:24;;;;;;;;;;;0.30;99.90;;;;;;5093839;28;19908;-77
2023/01/13 07:17:50;;;;;;;;;;;0.30;99.90;;;;;;5092621;28;20463;-77
2023/01/13 07:20:16;;;;;;;;;;;0.30;99.90;;;;;;5073384;28;19954;-76
2023/01/13 07:22:41;;;;;;;;;;;0.30;99.90;;;;;;5074076;28;19916;-77
2023/01/13 07:25:07;;;;;;;;;;;0.30;99.90;;;;;;5072697;28;19912;-77
2023/01/13 07:27:33;;;;;;;;;;;0.30;99.90;;;;;;5073683;28;19913;-77
2023/01/13 07:29:59;;;;;;;;;;;0.30;99.90;;;;;;5073618;28;19956;-77
2023/01/13 07:32:24;;;;;;;;;;;0.40;99.90;;;;;;5073385;28;19917;-76
2023/01/13 07:34:50;;;;;;;;;;;0.40;99.90;;;;;;5073631;28;20383;-77
2023/01/13 07:37:15;;;;;;;;;;;0.40;99.90;;;;;;5073591;28;20423;-77
2023/01/13 07:39:41;;;;;;;;;;;0.50;99.90;;;;;;5073524;28;19962;-77
2023/01/13 07:44:51;;;;;;;;;;;0.50;99.90;;;;;;5073853;28;19923;-77
2023/01/13 07:47:16;;;;;;;;;;;0.50;99.90;;;;;;5091003;28;20374;-77
2023/01/13 07:49:42;;;;;;;;;;;0.50;99.90;;;;;;5092377;28;19913;-77
2023/01/13 07:52:07;;;;;;;;;;;0.50;99.90;;;;;;5093684;28;19936;-77
2023/01/13 07:54:33;;;;;;;;;;;0.50;99.90;;;;;;5093610;28;19935;-77
2023/01/13 07:56:58;;;;;;;;;;;0.50;99.90;;;;;;5093887;28;19916;-77
2023/01/13 07:59:24;;;;;;;;;;;0.50;99.90;;;;;;5093528;28;19923;-77
2023/01/13 08:01:51;;;;;;;;;;;0.60;99.90;;;;;;5093341;28;19913;-76
2023/01/13 08:04:16;;;;;;;;;;;0.50;99.90;;;;;;5093780;28;19919;-77
2023/01/13 08:06:42;;;;;;;;;;;0.50;99.90;;;;;;5093545;28;20296;-77
2023/01/13 08:09:08;;;;;;;;;;;0.50;99.90;;;;;;5092253;28;20287;-76
2023/01/13 08:11:33;;;;;;;;;;;0.50;99.90;;;;;;5092531;28;19916;-77
2023/01/13 08:13:59;;;;;;;;;;;0.50;99.90;;;;;;5092195;28;19913;-77
2023/01/13 08:16:25;;;;;;;;;;;0.60;99.90;;;;;;5093096;28;19912;-76
2023/01/13 08:18:50;;;;;;;;;;;0.60;99.90;;;;;;5085223;28;19920;-77
2023/01/13 08:21:16;;;;;;;;;;;0.60;99.90;;;;;;5073203;28;19908;-77
2023/01/13 08:23:42;;;;;;;;;;;0.60;99.90;;;;;;5073383;28;19970;-77
2023/01/13 08:26:12;;;;;;;;;;;0.60;99.90;;;;;;5073430;28;19909;-76
2023/01/13 08:28:40;;;;;;;;;;;0.60;99.90;;;;;;5073364;28;19940;-77
2023/01/13 08:31:07;;;;;;;;;;;0.70;99.90;;;;;;5071959;28;19913;-77
2023/01/13 08:33:32;;;;;;;;;;;0.70;99.90;;;;;;5074974;28;20392;-77
2023/01/13 08:36:01;;;;;;;;;;;0.70;99.90;;;;;;5076657;28;19940;-77
2023/01/13 08:38:27;;;;;;;;;;;0.70;99.90;;;;;;5076541;28;19913;-77
2023/01/13 08:40:52;;;;;;;;;;;0.70;99.90;;;;;;5076590;28;20003;-77
2023/01/13 08:43:18;;;;;;;;;;;0.70;99.90;;;;;;5076496;28;19917;-77
2023/01/13 08:45:43;;;;;;;;;;;0.70;99.90;;;;;;5081306;28;19912;-77
2023/01/13 08:48:09;;;;;;;;;;;0.70;99.90;;;;;;5095135;28;19914;-77
2023/01/13 08:50:34;;;;;;;;;;;0.80;99.90;;;;;;5096635;28;19977;-76
2023/01/13 08:53:00;;;;;;;;;;;0.80;99.90;;;;;;5097145;28;19920;-77
2023/01/13 08:55:26;;;;;;;;;;;0.80;99.90;;;;;;5095323;28;19914;-77
2023/01/13 08:57:51;;;;;;;;;;;0.80;99.90;;;;;;5095648;28;19934;-77
2023/01/13 09:00:17;;;;;;;;;;;0.90;99.90;;;;;;5096437;28;19912;-77
2023/01/13 09:02:42;;;;;;;;;;;0.90;99.90;;;;;;5096284;28;19909;-77
2023/01/13 09:05:09;;;;;;;;;;;0.90;99.90;;;;;;5096405;28;19950;-77
2023/01/13 09:07:36;;;;;;;;;;;1.00;99.90;;;;;;5096595;28;19916;-77
2023/01/13 09:10:06;;;;;;;;;;;1.00;99.90;;;;;;5096246;28;19915;-77
2023/01/13 09:15:17;;;;;;;;;;;1.10;99.90;;;;;;5096485;28;19919;-77
2023/01/13 09:17:43;;;;;;;;;;;1.20;99.90;;;;;;5095836;28;19973;-77
2023/01/13 09:20:09;;;;;;;;;;;1.20;99.90;;;;;;5096008;28;20378;-77
2023/01/13 09:22:36;;;;;;;;;;;1.30;99.90;;;;;;5096250;28;20018;-77
2023/01/13 09:25:02;;;;;;;;;;;1.40;99.90;;;;;;5094813;28;19908;-77
2023/01/13 09:27:27;;;;;;;;;;;1.40;99.90;;;;;;5095958;28;19912;-77
2023/01/13 09:29:53;;;;;;;;;;;1.40;99.90;;;;;;5095952;28;20390;-77
2023/01/13 09:32:18;;;;;;;;;;;1.40;99.90;;;;;;5094506;28;20276;-77
2023/01/13 09:34:59;;;;;;;;;;;1.50;99.90;;;;;;5094720;28;19916;-77
2023/01/13 09:37:26;;;;;;;;;;;1.50;99.90;;;;;;5096266;28;20036;-77
2023/01/13 09:39:52;;;;;;;;;;;1.50;99.90;;;;;;5094820;28;19915;-77
2023/01/13 09:45:22;;;;;;;;;;;1.70;99.90;;;;;;5095749;28;19919;-77
2023/01/13 09:47:55;;;;;;;;;;;1.80;99.90;;;;;;5094263;28;19994;-77
2023/01/13 09:50:24;;;;;;;;;;;1.80;99.90;;;;;;5075610;28;19912;-77
2023/01/13 09:52:51;;;;;;;;;;;1.80;99.90;;;;;;5075625;28;20308;-77
2023/01/13 09:55:18;;;;;;;;;;;1.90;99.90;;;;;;5075569;28;19913;-77
2023/01/13 09:57:44;;;;;;;;;;;1.90;99.90;;;;;;5075346;28;19934;-77
2023/01/13 10:00:11;;;;;;;;;;;1.90;99.90;;;;;;5075965;28;19912;-77
2023/01/13 10:02:55;;;;;;;;;;;1.90;99.90;;;;;;5073908;28;20327;-77
2023/01/13 10:05:38;;;;;;;;;;;2.00;99.90;;;;;;5074214;28;20387;-77
2023/01/13 10:08:10;;;;;;;;;;;2.00;99.90;;;;;;5075649;28;19909;-77
2023/01/13 10:10:47;;;;;;;;;;;2.10;99.90;;;;;;5074860;28;19916;-75
2023/01/13 10:13:23;;;;;;;;;;;2.10;99.90;;;;;;5074803;28;19951;-75
2023/01/13 10:15:54;;;;;;;;;;;2.10;99.90;;;;;;5080264;28;19915;-75
2023/01/13 10:18:23;;;;;;;;;;;2.10;99.90;;;;;;5094565;28;20322;-75
2023/01/13 10:20:49;;;;;;;;;;;2.10;99.90;;;;;;5094864;28;19912;-75
2023/01/13 10:23:20;;;;;;;;;;;2.10;99.90;;;;;;5094767;28;20361;-75
2023/01/13 10:25:45;;;;;;;;;;;2.20;99.90;;;;;;5093809;28;19908;-75
2023/01/13 10:28:13;;;;;;;;;;;2.20;99.90;;;;;;5095051;28;19915;-75
2023/01/13 10:30:40;;;;;;;;;;;2.30;99.90;;;;;;5094654;28;19908;-75
2023/01/13 10:33:10;;;;;;;;;;;2.30;99.90;;;;;;5094409;28;20008;-75
2023/01/13 10:35:54;;;;;;;;;;;2.40;99.90;;;;;;5094653;28;19908;-75
2023/01/13 10:38:39;;;;;;;;;;;2.50;99.90;;;;;;5095135;28;19908;-75
2023/01/13 10:41:18;;;;;;;;;;;2.50;99.90;;;;;;5094611;28;19935;-75
2023/01/13 10:43:57;;;;;;;;;;;2.50;99.90;;;;;;5094512;28;19999;-75
2023/01/13 10:46:22;;;;;;;;;;;2.60;99.90;;;;;;5094540;28;20356;-75
2023/01/13 10:48:52;;;;;;;;;;;2.60;99.90;;;;;;5094069;28;19915;-75
2023/01/13 10:51:18;;;;;;;;;;;2.60;99.90;;;;;;5094425;28;19908;-75
2023/01/13 10:53:54;;;;;;;;;;;2.60;99.90;;;;;;5093078;28;19922;-75
2023/01/13 10:56:21;;;;;;;;;;;2.60;99.90;;;;;;5094098;28;19960;-75
2023/01/13 10:58:46;;;;;;;;;;;2.70;99.90;;;;;;5094429;28;19912;-75
2023/01/13 11:01:25;;;;;;;;;;;2.80;99.90;;;;;;5094574;28;19908;-75
2023/01/13 11:03:54;;;;;;;;;;;2.80;99.90;;;;;;5093891;28;19916;-75
2023/01/13 11:06:27;;;;;;;;;;;2.80;99.90;;;;;;5094183;28;19990;-75
2023/01/13 11:08:56;;;;;;;;;;;2.80;99.90;;;;;;5094358;28;20105;-75
2023/01/13 11:11:35;;;;;;;;;;;2.90;99.90;;;;;;5094088;28;19908;-75
2023/01/13 11:16:49;;;;;;;;;;;2.90;99.90;;;;;;5093877;28;19920;-75
2023/01/13 11:19:17;;;;;;;;;;;2.90;99.90;;;;;;5093676;28;20295;-75
2023/01/13 11:21:42;;;;;;;;;;;3.00;99.90;;;;;;5093961;28;19987;-75
2023/01/13 11:24:13;;;;;;;;;;;3.00;99.90;;;;;;5093855;28;20011;-75
2023/01/13 11:26:59;;;;;;;;;;;3.10;99.90;;;;;;5093913;28;19908;-75
2023/01/13 11:29:48;;;;;;;;;;;3.20;99.90;;;;;;5084750;28;19912;-75
2023/01/13 11:32:17;;;;;;;;;;;3.20;99.90;;;;;;5094217;28;19915;-75
2023/01/13 11:34:43;;;;;;;;;;;3.20;99.90;;;;;;5093963;28;19961;-75
2023/01/13 11:37:15;;;;;;;;;;;3.30;99.90;;;;;;5093086;28;20015;-75
2023/01/13 11:39:52;;;;;;;;;;;3.30;99.90;;;;;;5094098;28;20006;-75
2023/01/13 11:42:30;;;;;;;;;;;3.40;99.90;;;;;;5094135;28;19908;-75
2023/01/13 11:44:59;;;;;;;;;;;3.40;99.90;;;;;;5093972;28;19965;-75
2023/01/13 11:47:25;;;;;;;;;;;3.50;99.90;;;;;;5093012;28;21339;-75
2023/01/13 11:49:51;;;;;;;;;;;3.50;99.90;;;;;;5093762;28;19958;-74
2023/01/13 11:52:16;;;;;;;;;;;3.60;99.90;;;;;;5093781;28;19912;-75
2023/01/13 11:55:01;;;;;;;;;;;3.60;99.90;;;;;;5093704;28;19909;-75
2023/01/13 11:57:52;;;;;;;;;;;3.70;99.90;;;;;;5093781;28;19914;-75
2023/01/13 12:00:17;;;;;;;;;;;3.60;99.90;;;;;;5093626;28;19951;-75
2023/01/13 12:02:56;;;;;;;;;;;3.60;99.90;;;;;;5093893;28;19916;-75
2023/01/13 12:05:27;;;;;;;;;;;3.60;99.90;;;;;;5093932;28;19954;-75
2023/01/13 12:07:58;;;;;;;;;;;3.60;99.90;;;;;;5094665;28;20330;-74
2023/01/13 12:10:29;;;;;;;;;;;3.60;99.90;;;;;;5096000;28;19912;-74
2023/01/13 12:13:13;;;;;;;;;;;3.60;99.90;;;;;;5095950;28;19912;-75
2023/01/13 12:15:57;;;;;;;;;;;3.60;99.90;;;;;;5097479;28;20276;-75
2023/01/13 12:18:34;;;;;;;;;;;3.60;99.90;;;;;;5095668;28;19935;-75
2023/01/13 12:21:20;;;;;;;;;;;3.70;99.90;;;;;;5117847;28;19955;-74
2023/01/13 12:23:54;;;;;;;;;;;3.60;99.90;;;;;;5117521;28;19938;-74
2023/01/13 12:26:20;;;;;;;;;;;3.70;99.90;;;;;;5116338;28;19907;-74
2023/01/13 12:28:56;;;;;;;;;;;3.70;99.90;;;;;;5117271;28;19908;-75
2023/01/13 12:31:23;;;;;;;;;;;3.80;99.90;;;;;;5116159;28;19908;-74
2023/01/13 12:33:52;;;;;;;;;;;3.80;99.90;;;;;;5116226;28;19915;-75
2023/01/13 12:36:28;;;;;;;;;;;3.90;99.90;;;;;;5117444;28;19947;-75
2023/01/13 12:39:00;;;;;;;;;;;4.00;99.90;;;;;;5117381;28;19973;-75
2023/01/13 12:41:34;;;;;;;;;;;4.10;99.90;;;;;;5113552;28;19965;-75
2023/01/13 12:44:19;;;;;;;;;;;4.10;99.90;;;;;;5096775;28;19915;-76
2023/01/13 12:46:55;;;;;;;;;;;4.10;99.90;;;;;;5087274;28;19939;-74
2023/01/13 12:49:29;;;;;;;;;;;4.00;99.90;;;;;;5095106;28;19908;-75
2023/01/13 12:51:55;;;;;;;;;;;4.00;99.90;;;;;;5090893;28;20376;-75
2023/01/13 12:54:29;;;;;;;;;;;4.00;99.90;;;;;;5096990;28;19908;-75
2023/01/13 12:56:58;;;;;;;;;;;4.00;99.90;;;;;;5094692;28;19923;-75
2023/01/13 12:59:23;;;;;;;;;;;3.90;99.90;;;;;;5096307;28;19920;-76
2023/01/13 13:01:50;;;;;;;;;;;3.90;99.90;;;;;;5096479;28;19915;-75
2023/01/13 13:04:17;;;;;;;;;;;3.90;99.90;;;;;;5096748;28;20011;-75
2023/01/13 13:06:47;;;;;;;;;;;3.90;99.90;;;;;;5096764;28;19908;-75
2023/01/13 13:09:12;;;;;;;;;;;3.90;99.90;;;;;;5096422;28;20334;-75
2023/01/13 13:14:53;;;;;;;;;;;4.00;99.90;;;;;;5096414;28;20295;-76
2023/01/13 13:17:18;;;;;;;;;;;4.00;99.90;;;;;;5093960;28;19923;-75
2023/01/13 13:19:45;;;;;;;;;;;4.00;99.90;;;;;;5095579;28;20439;-75
2023/01/13 13:22:11;;;;;;;;;;;4.10;99.90;;;;;;5096124;28;19908;-75
2023/01/13 13:24:37;;;;;;;;;;;4.00;99.90;;;;;;5095966;28;19934;-75
2023/01/13 13:27:20;;;;;;;;;;;4.00;99.90;;;;;;5094829;28;19958;-75
2023/01/13 13:29:54;;;;;;;;;;;4.10;99.90;;;;;;5093511;28;19978;-75
2023/01/13 13:32:28;;;;;;;;;;;4.00;99.90;;;;;;5088434;28;19920;-75
2023/01/13 13:34:59;;;;;;;;;;;4.00;99.90;;;;;;5075734;28;19915;-75
2023/01/13 13:49:05;;;;;;;;;;;3.90;99.90;;;;;;5092155;28;20288;-74
2023/01/13 13:51:36;;;;;;;;;;;3.90;99.90;;;;;;5095777;28;19912;-74
2023/01/13 13:54:02;;;;;;;;;;;3.90;99.90;;;;;;5096410;28;19954;-74
2023/01/13 13:56:28;;;;;;;;;;;3.90;99.90;;;;;;5096277;28;19912;-75
2023/01/13 13:58:54;;;;;;;;;;;3.90;99.90;;;;;;5097833;28;20007;-76
2023/01/13 14:01:27;;;;;;;;;;;4.00;99.90;;;;;;5098640;28;20045;-76
2023/01/13 14:04:05;;;;;;;;;;;4.00;99.90;;;;;;5098046;28;19912;-75
2023/01/13 14:06:31;;;;;;;;;;;4.10;99.90;;;;;;5096800;28;19908;-76
2023/01/13 14:08:57;;;;;;;;;;;4.10;99.90;;;;;;5097401;28;19912;-76
2023/01/13 14:11:31;;;;;;;;;;;4.10;99.90;;;;;;5098894;28;19919;-75
2023/01/13 14:14:00;;;;;;;;;;;4.10;99.90;;;;;;5096724;28;19908;-76
2023/01/13 14:16:26;;;;;;;;;;;4.10;99.90;;;;;;5095307;28;19918;-76
2023/01/13 14:18:51;;;;;;;;;;;4.20;99.90;;;;;;5095231;28;20027;-76
2023/01/13 14:21:17;;;;;;;;;;;4.20;99.90;;;;;;5095124;28;19913;-76
2023/01/13 14:23:50;;;;;;;;;;;4.20;99.90;;;;;;5095130;28;19971;-76
2023/01/13 14:26:15;;;;;;;;;;;4.20;99.90;;;;;;5093895;28;20007;-76
2023/01/13 14:28:43;;;;;;;;;;;4.30;99.90;;;;;;5094247;28;20263;-76
2023/01/13 14:31:09;;;;;;;;;;;4.20;99.90;;;;;;5094417;28;19970;-76
2023/01/13 14:33:37;;;;;;;;;;;4.20;99.90;;;;;;5095138;28;20323;-76
2023/01/13 14:36:23;;;;;;;;;;;4.20;99.90;;;;;;5093626;28;19908;-76
2023/01/13 14:39:04;;;;;;;;;;;4.20;99.90;;;;;;5094439;28;19908;-76
2023/01/13 14:41:41;;;;;;;;;;;4.10;99.90;;;;;;5095326;28;19917;-76
2023/01/13 14:44:27;;;;;;;;;;;4.10;99.90;;;;;;5093202;28;19919;-75
2023/01/13 14:46:55;;;;;;;;;;;4.10;99.90;;;;;;5087256;28;19916;-76
2023/01/13 14:49:21;;;;;;;;;;;4.10;99.90;;;;;;5094694;28;20330;-76
2023/01/13 14:51:46;;;;;;;;;;;4.00;99.90;;;;;;5094690;28;19965;-76
2023/01/13 14:54:31;;;;;;;;;;;4.00;99.90;;;;;;5094694;28;19912;-76
2023/01/13 14:57:19;;;;;;;;;;;3.90;99.90;;;;;;5094711;28;19908;-76
2023/01/13 14:59:45;;;;;;;;;;;3.90;99.90;;;;;;5094079;28;20372;-75
2023/01/13 15:02:28;;;;;;;;;;;3.90;99.90;;;;;;5094461;28;19915;-76
2023/01/13 15:04:57;;;;;;;;;;;3.80;99.90;;;;;;5094381;28;19951;-76
2023/01/13 15:07:27;;;;;;;;;;;3.90;99.90;;;;;;5094311;28;20365;-75
2023/01/13 15:09:54;;;;;;;;;;;3.80;99.90;;;;;;5091037;28;20371;-76
2023/01/13 15:12:22;;;;;;;;;;;3.70;99.90;;;;;;5079138;28;20198;-76
2023/01/13 15:14:48;;;;;;;;;;;3.60;99.90;;;;;;5073802;28;20353;-75
2023/01/13 15:17:15;;;;;;;;;;;3.50;99.90;;;;;;5074821;28;19924;-76
2023/01/13 15:19:41;;;;;;;;;;;3.50;99.90;;;;;;5093321;28;19931;-76
2023/01/13 15:22:06;;;;;;;;;;;3.50;99.90;;;;;;5091268;28;20424;-76
2023/01/13 15:24:32;;;;;;;;;;;3.40;99.90;;;;;;5092812;28;20361;-76
2023/01/13 15:26:57;;;;;;;;;;;3.30;99.90;;;;;;5093987;28;19913;-75
2023/01/13 15:29:23;;;;;;;;;;;3.30;99.90;;;;;;5093740;28;19955;-75
2023/01/13 15:31:48;;;;;;;;;;;3.30;99.90;;;;;;5092677;28;19908;-76